M I D A S
Marine Information and Data Acquisition System
Tripno 741 of the Zeeleeuw from 2004-06-29 06:20:40 to 2004-06-29 11:54:46
Back to CruiseResearch ActivitiesStationsMapUnderway DataData graphs

EquipmentUnitsComment
TimeDGPSUTC
LatitudeDGPSDM.mWGS84
LongitudeDGPSDM.mWGS84
TemperatureSBE03/SBE38deg celciusITS90
ConductivitySBE21S/mITS90
SalinitySBE21 Practical Salinity Units
ChlorophylAChelsea fluorimeterg/lCalibrated in Aceton
Missing or incorrect values are displayed as -999
Sea surface data collected by the RV Zeeleeuw from 2004-06-29 06:20:40 to 2004-06-29 11:54:46
Time Latitude Longitude Temperature Conductivity Salinity ChlorophylA
2004-06-29 06:21:42 51°13.599 2°56.079 20.942285 0.024196 0.124779 6.769657
2004-06-29 06:22:42 51°13.629 2°55.999 20.94472 0.024092 0.124259 6.769657
2004-06-29 06:23:42 51°13.674 2°55.897 20.957456 0.024092 0.124269 6.769657
2004-06-29 06:24:42 51°13.728 2°55.792 20.95031 0.024092 0.124281 6.769657
2004-06-29 06:25:42 51°13.789 2°55.689 20.993335 0.024092 0.12429 6.735947
2004-06-29 06:26:42 51°13.867 2°55.622 20.973941 0.024092 0.124298 6.769657
2004-06-29 06:27:42 51°13.952 2°55.627 20.994173 0.024092 0.12431 6.769657
2004-06-29 06:28:41 51°13.963 2°55.586 20.949711 0.024196 0.124847 6.769657
2004-06-29 06:29:41 51°14.047 2°55.471 20.99142 0.024092 0.124329 6.769657
2004-06-29 06:30:42 51°14.181 2°55.367 21.048694 0.024092 0.124338 6.769657
2004-06-29 06:31:42 51°14.31 2°55.168 20.948154 0.024092 0.124346 6.769657
2004-06-29 06:32:42 51°14.465 2°54.949 20.952985 0.024092 0.124355 6.735947
2004-06-29 06:33:42 51°14.657 2°54.776 20.952386 0.024092 0.124362 6.769657
2004-06-29 06:34:47 51°14.871 2°54.601 20.965719 0.024092 0.124368 6.769657
2004-06-29 06:35:47 51°15.067 2°54.437 20.950829 0.024092 0.124375 6.769657
2004-06-29 06:36:47 51°15.263 2°54.274 20.967834 0.024092 0.124384 6.769657
2004-06-29 06:37:47 51°15.459 2°54.103 20.935816 0.024092 0.124394 6.735947
2004-06-29 06:38:47 51°15.652 2°53.927 20.929786 0.024092 0.124403 6.769657
2004-06-29 06:39:47 51°15.85 2°53.77 20.934978 0.024092 0.124411 6.769657
2004-06-29 06:40:47 51°16.048 2°53.618 20.938412 0.024092 0.12442 6.769657
2004-06-29 06:41:47 51°16.248 2°53.466 20.927789 0.024092 0.124433 6.769657
2004-06-29 06:42:48 51°16.45 2°53.312 20.97881 0.024092 0.124442 6.769657
2004-06-29 06:43:47 51°16.644 2°53.163 20.927789 0.024092 0.124454 6.769657
2004-06-29 06:44:47 51°16.841 2°53.012 20.937493 0.024092 0.124462 6.735947
2004-06-29 06:45:48 51°17.035 2°52.851 20.934139 0.024092 0.124474 6.769657
2004-06-29 06:46:47 51°17.223 2°52.685 20.925992 0.024092 0.124485 6.735947
2004-06-29 06:47:47 51°17.414 2°52.515 20.929307 0.024092 0.124493 6.769657
2004-06-29 06:48:47 51°17.604 2°52.345 20.953504 0.024092 0.124504 6.769657
2004-06-29 06:49:48 51°17.798 2°52.173 20.92727 0.024092 0.124512 6.735947
2004-06-29 06:50:47 51°17.986 2°52.007 20.941287 0.024092 0.124521 6.769657
2004-06-29 06:51:48 51°18.179 2°51.835 20.957416 0.024092 0.124529 6.769657
2004-06-29 06:52:47 51°18.339 2°51.614 20.945359 0.024092 0.124541 6.769657
2004-06-29 06:53:48 51°18.496 2°51.367 20.951987 0.024092 0.124552 6.769657
2004-06-29 06:54:46 51°18.646 2°51.132 20.964601 0.024092 0.12456 6.769657
2004-06-29 06:55:47 51°18.805 2°50.886 20.955021 0.024092 0.12457 6.735947
2004-06-29 06:56:47 51°18.963 2°50.647 20.957456 0.024092 0.124579 6.735947
2004-06-29 06:57:47 51°19.123 2°50.411 20.965919 0.024092 0.124588 6.769657
2004-06-29 06:58:47 51°19.282 2°50.177 20.959931 0.023988 0.124066 6.735947
2004-06-29 06:59:48 51°19.439 2°49.934 20.971267 0.024092 0.124607 6.769657
2004-06-29 07:00:48 51°19.579 2°49.671 20.96987 0.024092 0.124613 6.769657
2004-06-29 07:01:48 51°19.697 2°49.387 20.969591 0.023988 0.124092 6.769657
2004-06-29 07:02:48 51°19.757 2°49.054 20.973622 0.023988 0.124099 6.735947
2004-06-29 07:03:48 51°19.79 2°48.708 20.973781 0.023988 0.124106 6.735947
2004-06-29 07:04:56 51°19.834 2°48.317 20.987469 0.023988 0.124113 6.769657
2004-06-29 07:05:55 51°19.873 2°47.978 20.983718 0.023988 0.124119 6.769657
2004-06-29 07:06:55 51°19.916 2°47.636 20.988906 0.023988 0.124128 6.769657
2004-06-29 07:07:55 51°19.96 2°47.296 20.980167 0.023988 0.124135 6.769657
2004-06-29 07:08:56 51°20.005 2°46.952 20.989584 0.023988 0.124145 6.735947
2004-06-29 07:09:56 51°20.049 2°46.617 20.980406 0.023988 0.124152 6.769657
2004-06-29 07:10:54 51°20.089 2°46.293 21.012484 0.023988 0.124159 6.769657
2004-06-29 07:11:55 51°20.106 2°45.948 20.994452 0.023988 0.124167 6.769657
2004-06-29 07:12:56 51°20.124 2°45.601 20.993933 0.023988 0.124172 6.769657
2004-06-29 07:13:54 51°20.142 2°45.269 21.007298 0.023988 0.124181 6.735947
2004-06-29 07:14:55 51°20.161 2°44.92 21.013402 0.023988 0.12419 6.769657
2004-06-29 07:15:55 51°20.18 2°44.575 21.014 0.023988 0.124195 6.769657
2004-06-29 07:16:56 51°20.2 2°44.226 21.017829 0.023988 0.124202 6.735947
2004-06-29 07:17:56 51°20.23 2°43.887 21.021818 0.023988 0.124208 6.769657
2004-06-29 07:18:56 51°20.28 2°43.555 21.046222 0.023988 0.124214 6.769657
2004-06-29 07:19:54 51°20.342 2°43.239 21.015476 0.023988 0.12422 6.735947
2004-06-29 07:20:54 51°20.404 2°42.913 21.01037 0.023988 0.124227 6.735947
2004-06-29 07:21:56 51°20.469 2°42.576 21.045305 0.023988 0.124231 6.769657
2004-06-29 07:22:56 51°20.531 2°42.251 21.02102 0.023988 0.124238 6.769657
2004-06-29 07:23:56 51°20.594 2°41.928 21.030512 0.023988 0.124243 6.735947
2004-06-29 07:24:56 51°20.668 2°41.613 21.017071 0.023988 0.124248 6.769657
2004-06-29 07:25:56 51°20.842 2°41.422 21.014319 0.023988 0.124251 6.735947
2004-06-29 07:26:56 51°21.062 2°41.355 21.048455 0.023988 0.124262 6.735947
2004-06-29 07:27:54 51°21.279 2°41.347 21.044787 0.023988 0.124275 6.735947
2004-06-29 07:28:56 51°21.515 2°41.344 21.051923 0.023988 0.124298 6.735947
2004-06-29 07:29:55 51°21.738 2°41.343 21.02106 0.023988 0.124318 6.735947
2004-06-29 07:30:55 51°21.964 2°41.346 21.047697 0.023988 0.124354 6.769657
2004-06-29 07:31:55 51°22.191 2°41.35 21.039045 0.023988 0.124387 6.769657
2004-06-29 07:32:56 51°22.422 2°41.352 21.052202 0.023988 0.124415 6.735947
2004-06-29 07:33:54 51°22.643 2°41.355 21.046541 0.023988 0.124446 6.735947
2004-06-29 07:34:55 51°22.875 2°41.357 21.065317 0.023988 0.124475 6.769657
2004-06-29 07:35:56 51°23.108 2°41.361 21.065078 0.023988 0.124504 6.735947
2004-06-29 07:37:02 51°23.359 2°41.365 21.054674 0.023988 0.12454 6.769657
2004-06-29 07:38:00 51°23.578 2°41.357 21.080422 0.023988 0.124573 6.735947
2004-06-29 07:39:00 51°23.797 2°41.28 21.060933 0.023884 0.12407 6.769657
2004-06-29 07:40:10 51°24.054 2°41.193 21.074165 0.023884 0.124108 6.769657
2004-06-29 07:41:10 51°24.274 2°41.123 21.07285 0.023884 0.124137 6.769657
2004-06-29 07:42:10 51°24.494 2°41.048 21.075002 0.023884 0.12417 6.735947
2004-06-29 07:43:09 51°24.711 2°40.979 21.071774 0.023884 0.124198 6.735947
2004-06-29 07:44:09 51°24.932 2°40.906 21.0811 0.023884 0.124227 6.769657
2004-06-29 07:45:09 51°25.155 2°40.869 21.092137 0.023884 0.124251 6.769657
2004-06-29 07:46:10 51°25.366 2°41.023 21.104289 0.023884 0.124275 6.769657
2004-06-29 07:47:10 51°25.556 2°41.247 21.100066 0.023884 0.124317 6.735947
2004-06-29 07:48:09 51°25.733 2°41.482 21.108153 0.023884 0.124326 6.735947
2004-06-29 07:49:10 51°25.902 2°41.762 21.096719 0.023884 0.124353 6.735947
2004-06-29 07:50:10 51°26.066 2°42.038 21.09664 0.023884 0.124367 6.769657
2004-06-29 07:51:10 51°26.192 2°42.362 21.121297 0.023884 0.124374 6.735947
2004-06-29 07:52:09 51°26.321 2°42.681 21.112893 0.023884 0.124383 6.735947
2004-06-29 07:53:09 51°26.451 2°43.002 21.107874 0.023884 0.124388 6.735947
2004-06-29 07:54:09 51°26.579 2°43.325 21.121536 0.023884 0.12439 6.769657
2004-06-29 07:55:14 51°26.721 2°43.678 21.117394 0.023884 0.124395 6.769657
2004-06-29 07:56:14 51°26.852 2°44.001 21.116558 0.02378 0.123859 6.735947
2004-06-29 07:57:13 51°26.883 2°44.372 21.109069 0.02378 0.123859 6.769657
2004-06-29 07:58:14 51°26.781 2°44.718 21.130338 0.02378 0.123844 6.735947
2004-06-29 07:59:14 51°26.629 2°45.001 21.136191 0.02378 0.123854 6.735947
2004-06-29 08:00:14 51°26.454 2°45.236 21.151042 0.02378 0.123854 6.769657
2004-06-29 08:01:13 51°26.281 2°45.471 21.156775 0.02378 0.123869 6.735947
2004-06-29 08:02:13 51°26.103 2°45.708 21.156695 0.02378 0.123882 6.769657
2004-06-29 08:03:14 51°25.929 2°45.956 21.15781 0.02378 0.12388 6.735947
2004-06-29 08:04:14 51°25.761 2°46.21 21.179979 0.02378 0.123916 6.735947
2004-06-29 08:05:14 51°25.652 2°46.548 21.149729 0.02378 0.123942 6.735947
2004-06-29 08:06:14 51°25.624 2°46.913 21.193309 0.02378 0.123959 6.769657
2004-06-29 08:07:13 51°25.733 2°47.247 21.173731 0.02378 0.123975 6.769657
2004-06-29 08:08:14 51°25.858 2°47.588 21.181133 0.02378 0.123987 6.735947
2004-06-29 08:09:13 51°25.978 2°47.918 21.161273 0.02378 0.123992 6.735947
2004-06-29 08:10:13 51°26.141 2°48.211 21.195617 0.02378 0.123987 6.769657
2004-06-29 08:11:14 51°26.308 2°48.504 21.202937 0.02378 0.12397 6.769657
2004-06-29 08:12:14 51°26.473 2°48.793 21.180815 0.02378 0.124002 6.735947
2004-06-29 08:13:13 51°26.628 2°49.083 21.201107 0.02378 0.123997 6.735947
2004-06-29 08:14:13 51°26.786 2°49.384 21.188813 0.02378 0.123999 6.769657
2004-06-29 08:15:13 51°26.978 2°49.547 21.238414 0.02378 0.123995 6.769657
2004-06-29 08:16:14 51°27.186 2°49.415 21.204767 0.02378 0.123995 6.735947
2004-06-29 08:17:14 51°27.393 2°49.27 21.217575 0.02378 0.123994 6.769657
2004-06-29 08:18:14 51°27.6 2°49.129 21.206477 0.02378 0.124001 6.735947
2004-06-29 08:19:14 51°27.809 2°48.991 21.203573 0.02378 0.124009 6.735947
2004-06-29 08:20:14 51°28.019 2°48.862 21.221314 0.02378 0.124028 6.735947
2004-06-29 08:21:14 51°28.237 2°48.957 21.206159 0.02378 0.124037 6.769657
2004-06-29 08:22:14 51°28.408 2°49.24 21.211967 0.02378 0.124058 6.769657
2004-06-29 08:23:14 51°28.535 2°49.579 21.204568 0.02378 0.124073 6.735947
2004-06-29 08:24:13 51°28.614 2°49.947 21.227319 0.02378 0.124087 6.735947
2004-06-29 08:25:13 51°28.698 2°50.326 21.210296 0.02378 0.124098 6.735947
2004-06-29 08:26:13 51°28.795 2°50.696 21.240123 0.02378 0.124101 6.735947
2004-06-29 08:27:13 51°28.899 2°51.064 21.237141 0.02378 0.124105 6.735947
2004-06-29 08:28:13 51°29.001 2°51.431 21.237738 0.02378 0.124101 6.735947
2004-06-29 08:29:13 51°29.106 2°51.795 21.251574 0.02378 0.124103 6.735947
2004-06-29 08:30:14 51°29.17 2°52.177 21.237499 0.02378 0.124098 6.735947
2004-06-29 08:31:14 51°29.073 2°52.518 21.263578 0.02378 0.124085 6.735947
2004-06-29 08:32:14 51°28.918 2°52.799 21.276098 0.02378 0.124092 6.735947
2004-06-29 08:33:21 51°28.743 2°53.112 21.279396 0.02378 0.124105 6.735947
2004-06-29 08:34:21 51°28.581 2°53.38 21.27574 0.02378 0.124099 6.735947
2004-06-29 08:35:20 51°28.403 2°53.607 21.297078 0.02378 0.124113 6.735947
2004-06-29 08:36:20 51°28.223 2°53.835 21.275581 0.02378 0.124106 6.769657
2004-06-29 08:37:25 51°28.026 2°54.078 21.276495 0.02378 0.124134 6.735947
2004-06-29 08:38:25 51°27.849 2°54.315 21.267871 0.023676 0.123621 6.735947
2004-06-29 08:39:25 51°27.671 2°54.547 21.282734 0.02378 0.124165 6.735947
2004-06-29 08:40:25 51°27.495 2°54.78 21.288417 0.023676 0.123652 6.735947
2004-06-29 08:41:26 51°27.315 2°55.02 21.303315 0.023676 0.123668 6.769657
2004-06-29 08:42:26 51°27.137 2°55.261 21.313961 0.023676 0.12368 6.769657
2004-06-29 08:43:25 51°26.964 2°55.492 21.31841 0.023676 0.123704 6.735947
2004-06-29 08:44:30 51°26.769 2°55.745 21.323851 0.023676 0.123718 6.735947
2004-06-29 08:45:29 51°26.592 2°55.976 21.324526 0.023676 0.123737 6.735947
2004-06-29 08:46:30 51°26.412 2°56.211 21.350613 0.023676 0.123739 6.769657
2004-06-29 08:47:30 51°26.237 2°56.445 21.35887 0.023676 0.123784 6.735947
2004-06-29 08:48:29 51°26.132 2°56.772 21.319919 0.023676 0.123801 6.735947
2004-06-29 08:49:30 51°26.065 2°57.157 21.341759 0.023676 0.123817 6.735947
2004-06-29 08:50:29 51°26.008 2°57.528 21.329371 0.023676 0.123841 6.735947
2004-06-29 08:51:30 51°25.947 2°57.911 21.323851 0.023676 0.123796 6.735947
2004-06-29 08:52:30 51°25.878 2°58.283 21.37931 0.023676 0.123827 6.735947
2004-06-29 08:53:29 51°25.81 2°58.658 21.335327 0.023676 0.12386 6.702238
2004-06-29 08:54:30 51°25.74 2°59.044 21.370976 0.023676 0.123869 6.702238
2004-06-29 08:55:30 51°25.682 2°59.422 21.392325 0.023676 0.123867 6.735947
2004-06-29 08:56:30 51°25.625 2°59.804 21.393237 0.023676 0.123886 6.735947
2004-06-29 08:57:29 51°25.572 3°0.182 21.394308 0.023676 0.12389 6.735947
2004-06-29 08:58:37 51°25.511 3°0.612 21.387206 0.023676 0.123896 6.735947
2004-06-29 08:59:44 51°25.448 3°1.036 21.381215 0.023676 0.123909 6.735947
2004-06-29 09:00:47 51°25.391 3°1.438 21.404941 0.023676 0.123909 6.735947
2004-06-29 09:01:47 51°25.364 3°1.829 21.41097 0.023676 0.123916 6.735947
2004-06-29 09:02:47 51°25.334 3°2.225 21.435836 0.023676 0.123917 6.735947
2004-06-29 09:03:47 51°25.298 3°2.616 21.407519 0.023676 0.123923 6.735947
2004-06-29 09:04:47 51°25.263 3°3.005 21.431831 0.023676 0.123924 6.735947
2004-06-29 09:05:47 51°25.22 3°3.397 21.412953 0.023676 0.123924 6.735947
2004-06-29 09:06:49 51°25.18 3°3.799 21.418308 0.023676 0.123926 6.702238
2004-06-29 09:07:50 51°25.143 3°4.201 21.445233 0.023572 0.123393 6.702238
2004-06-29 09:08:49 51°25.101 3°4.588 21.429095 0.023572 0.123388 6.735947
2004-06-29 09:09:49 51°25.074 3°4.975 21.445946 0.023676 0.123933 6.702238
2004-06-29 09:10:50 51°25.034 3°5.371 21.438731 0.023676 0.123916 6.735947
2004-06-29 09:11:49 51°24.993 3°5.758 21.444717 0.023572 0.123396 6.735947
2004-06-29 09:12:50 51°24.949 3°6.163 21.453955 0.023676 0.123935 6.702238
2004-06-29 09:13:53 51°24.911 3°6.585 21.462556 0.023572 0.123396 6.702238
2004-06-29 09:14:51 51°24.874 3°6.968 21.471157 0.023572 0.123394 6.735947
2004-06-29 09:15:51 51°24.845 3°7.361 21.463547 0.023572 0.123386 6.735947
2004-06-29 09:16:51 51°24.82 3°7.755 21.466242 0.023572 0.123391 6.702238
2004-06-29 09:17:53 51°24.797 3°8.165 21.47405 0.023572 0.123391 6.702238
2004-06-29 09:18:51 51°24.78 3°8.548 21.49517 0.023572 0.123386 6.735947
2004-06-29 09:19:57 51°24.791 3°8.984 21.528442 0.023572 0.123384 6.702238
2004-06-29 09:20:56 51°24.828 3°9.364 21.495566 0.023572 0.123381 6.702238
2004-06-29 09:21:57 51°24.881 3°9.753 21.490812 0.023572 0.123367 6.735947
2004-06-29 09:22:57 51°24.945 3°10.131 21.505193 0.023572 0.123369 6.702238
2004-06-29 09:23:57 51°25.025 3°10.497 21.539569 0.023572 0.123351 6.735947
2004-06-29 09:24:54 51°25.128 3°10.824 21.531293 0.023572 0.12335 6.735947
2004-06-29 09:25:57 51°25.314 3°11.067 21.535411 0.023572 0.123343 6.702238
2004-06-29 09:27:08 51°25.575 3°11.056 21.494496 0.023676 0.123863 6.735947
2004-06-29 09:28:07 51°25.786 3°10.966 21.531689 0.023572 0.123322 6.735947
2004-06-29 09:29:07 51°25.995 3°10.843 21.523333 0.023572 0.123315 6.702238
2004-06-29 09:30:07 51°26.202 3°10.705 21.520046 0.023572 0.123312 6.702238
2004-06-29 09:31:08 51°26.414 3°10.567 21.542419 0.023676 0.123844 6.735947
2004-06-29 09:32:08 51°26.619 3°10.417 21.531927 0.023572 0.123308 6.702238
2004-06-29 09:33:09 51°26.82 3°10.251 21.535886 0.023572 0.123308 6.735947
2004-06-29 09:34:11 51°27.019 3°10.066 21.540796 0.023572 0.12331 6.702238
2004-06-29 09:35:17 51°27.215 3°9.835 21.561263 0.023572 0.123308 6.702238
2004-06-29 09:36:17 51°27.397 3°9.629 21.548714 0.023572 0.123305 6.735947
2004-06-29 09:37:17 51°27.608 3°9.501 21.571316 0.023572 0.123303 6.702238
2004-06-29 09:38:17 51°27.842 3°9.517 21.572939 0.023572 0.123301 6.735947
2004-06-29 09:39:21 51°28.08 3°9.673 21.583346 0.023572 0.123298 6.702238
2004-06-29 09:40:22 51°28.271 3°9.93 21.578598 0.023572 0.123289 6.702238
2004-06-29 09:41:21 51°28.405 3°10.253 21.586789 0.023572 0.123275 6.735947
2004-06-29 09:42:21 51°28.521 3°10.595 21.592842 0.023572 0.123279 6.702238
2004-06-29 09:43:21 51°28.634 3°10.942 21.599687 0.023572 0.123272 6.668529
2004-06-29 09:44:22 51°28.693 3°11.332 21.590547 0.023572 0.12328 6.702238
2004-06-29 09:45:20 51°28.699 3°11.708 21.631288 0.023572 0.123275 6.702238
2004-06-29 09:46:22 51°28.631 3°12.081 21.638445 0.023572 0.123256 6.702238
2004-06-29 09:47:22 51°28.492 3°12.367 21.634491 0.023572 0.123229 6.702238
2004-06-29 09:48:34 51°28.268 3°12.603 21.629628 0.023572 0.123237 6.702238
2004-06-29 09:49:54 51°28.03 3°12.889 21.64062 0.023572 0.123224 6.702238
2004-06-29 09:50:53 51°27.858 3°13.11 21.66754 0.023572 0.123249 6.702238
2004-06-29 09:51:54 51°27.675 3°13.332 21.65165 0.023572 0.123225 6.702238
2004-06-29 09:52:54 51°27.493 3°13.544 21.656038 0.023572 0.123222 6.702238
2004-06-29 09:53:54 51°27.311 3°13.758 21.659556 0.023572 0.123217 6.702238
2004-06-29 09:54:52 51°27.139 3°13.968 21.656354 0.023572 0.123205 6.735947
2004-06-29 09:55:54 51°26.944 3°14.172 21.676669 0.023572 0.123198 6.735947
2004-06-29 09:56:53 51°26.758 3°14.36 21.669912 0.023572 0.123177 6.702238
2004-06-29 09:57:54 51°26.567 3°14.562 21.678369 0.023676 0.123689 6.735947
2004-06-29 09:58:54 51°26.383 3°14.756 21.717085 0.023676 0.123683 6.702238
2004-06-29 09:59:54 51°26.199 3°14.949 21.715386 0.023676 0.123699 6.702238
2004-06-29 10:00:58 51°25.998 3°15.146 21.718072 0.023676 0.123689 6.702238
2004-06-29 10:01:58 51°25.815 3°15.355 21.724746 0.023572 0.123172 6.702238
2004-06-29 10:02:58 51°25.664 3°15.623 21.726287 0.023572 0.123169 6.702238
2004-06-29 10:03:57 51°25.51 3°15.887 21.740541 0.023676 0.123699 6.702238
2004-06-29 10:04:57 51°25.356 3°16.167 21.753964 0.023676 0.123647 6.702238
2004-06-29 10:05:58 51°25.241 3°16.502 21.736158 0.023676 0.123683 6.702238
2004-06-29 10:06:57 51°25.136 3°16.838 21.760161 0.023676 0.123676 6.735947
2004-06-29 10:07:58 51°25.01 3°17.173 21.746266 0.023676 0.12367 6.702238
2004-06-29 10:08:58 51°24.847 3°17.446 21.750253 0.023676 0.123661 6.735947
2004-06-29 10:09:58 51°24.635 3°17.553 21.773738 0.023676 0.12363 6.702238
2004-06-29 10:10:57 51°24.423 3°17.563 21.750727 0.023676 0.123628 6.702238
2004-06-29 10:11:58 51°24.203 3°17.539 21.777566 0.023676 0.123625 6.702238
2004-06-29 10:12:58 51°23.996 3°17.46 21.792718 0.023572 0.123093 6.702238
2004-06-29 10:13:58 51°23.798 3°17.357 21.784116 0.023676 0.123619 6.702238
2004-06-29 10:14:58 51°23.623 3°17.19 21.79327 0.023676 0.123611 6.702238
2004-06-29 10:15:58 51°23.481 3°16.957 21.803448 0.023676 0.123602 6.668529
2004-06-29 10:16:57 51°23.384 3°16.687 21.822578 0.023676 0.123594 6.702238
2004-06-29 10:17:56 51°23.29 3°16.415 21.830268 0.023676 0.123583 6.702238
2004-06-29 10:18:56 51°23.219 3°16.123 21.845211 0.023676 0.123575 6.702238
2004-06-29 10:19:58 51°23.157 3°15.812 21.827862 0.023676 0.123564 6.702238
2004-06-29 10:20:58 51°23.097 3°15.512 21.840086 0.023676 0.123554 6.668529
2004-06-29 10:21:58 51°23.036 3°15.208 21.843201 0.023676 0.123544 6.702238
2004-06-29 10:22:58 51°22.976 3°14.904 21.844383 0.023676 0.123532 6.702238
2004-06-29 10:23:57 51°22.922 3°14.6 21.848286 0.023676 0.123521 6.702238
2004-06-29 10:24:58 51°22.865 3°14.287 21.86563 0.023676 0.123511 6.735947
2004-06-29 10:25:56 51°22.818 3°13.988 21.868547 0.023676 0.123499 6.702238
2004-06-29 10:26:58 51°22.769 3°13.668 21.869611 0.023676 0.12349 6.668529
2004-06-29 10:27:58 51°22.725 3°13.358 21.879502 0.023676 0.123478 6.668529
2004-06-29 10:28:58 51°22.679 3°13.046 21.872724 0.023676 0.12347 6.735947
2004-06-29 10:29:58 51°22.634 3°12.732 21.89022 0.023676 0.123459 6.702238
2004-06-29 10:30:58 51°22.588 3°12.415 21.890771 0.023676 0.123449 6.702238
2004-06-29 10:32:04 51°22.539 3°12.066 21.902787 0.023676 0.123439 6.702238
2004-06-29 10:33:03 51°22.495 3°11.752 21.905151 0.023676 0.123428 6.702238
2004-06-29 10:34:04 51°22.449 3°11.426 21.911808 0.023676 0.123416 6.668529
2004-06-29 10:35:04 51°22.404 3°11.102 21.923505 0.023676 0.123408 6.668529
2004-06-29 10:36:04 51°22.362 3°10.776 21.933192 0.023676 0.123396 6.668529
2004-06-29 10:37:04 51°22.317 3°10.45 21.921969 0.023676 0.123385 6.702238
2004-06-29 10:38:04 51°22.275 3°10.125 21.932326 0.023676 0.123377 6.702238
2004-06-29 10:39:04 51°22.234 3°9.801 21.942012 0.023676 0.123365 6.668529
2004-06-29 10:40:03 51°22.193 3°9.481 21.970432 0.023676 0.123354 6.702238
2004-06-29 10:41:04 51°22.153 3°9.15 21.956459 0.023676 0.123344 6.668529
2004-06-29 10:42:04 51°22.113 3°8.826 21.978657 0.023676 0.123334 6.702238
2004-06-29 10:43:04 51°22.072 3°8.503 21.956381 0.023676 0.123322 6.702238
2004-06-29 10:44:04 51°22.032 3°8.181 21.956066 0.023676 0.123312 6.702238
2004-06-29 10:45:04 51°21.992 3°7.856 21.972478 0.023676 0.1233 6.702238
2004-06-29 10:46:04 51°21.952 3°7.532 21.963151 0.023676 0.123289 6.702238
2004-06-29 10:47:05 51°21.912 3°7.201 21.98869 0.023676 0.123279 6.702238
2004-06-29 10:48:06 51°21.85 3°6.882 21.988612 0.023676 0.123267 6.668529
2004-06-29 10:49:06 51°21.77 3°6.579 22.008714 0.023676 0.123257 6.668529
2004-06-29 10:50:06 51°21.694 3°6.274 22.031328 0.023676 0.123245 6.702238
2004-06-29 10:51:05 51°21.62 3°5.972 22.024604 0.023676 0.123233 6.668529
2004-06-29 10:52:05 51°21.545 3°5.664 22.013159 0.023676 0.123223 6.634819
2004-06-29 10:53:06 51°21.469 3°5.35 22.005056 0.023676 0.123211 6.702238
2004-06-29 10:54:06 51°21.397 3°5.036 22.04332 0.023676 0.1232 6.702238
2004-06-29 10:55:06 51°21.324 3°4.722 22.022244 0.023676 0.123188 6.702238
2004-06-29 10:56:06 51°21.249 3°4.408 22.031407 0.023676 0.123178 6.702238
2004-06-29 10:57:06 51°21.169 3°4.098 22.032901 0.023676 0.123166 6.668529
2004-06-29 10:58:06 51°21.093 3°3.786 22.041158 0.023676 0.123154 6.668529
2004-06-29 10:59:06 51°21.016 3°3.473 22.045915 0.023676 0.123144 6.702238
2004-06-29 11:00:05 51°20.942 3°3.164 22.048156 0.023676 0.12313 6.668529
2004-06-29 11:01:05 51°20.863 3°2.852 22.065687 0.02378 0.123651 6.668529
2004-06-29 11:02:07 51°20.782 3°2.527 22.067063 0.02378 0.123642 6.702238
2004-06-29 11:03:06 51°20.705 3°2.218 22.074569 0.023676 0.123096 6.702238
2004-06-29 11:04:05 51°20.625 3°1.914 22.067574 0.02378 0.123618 6.668529
2004-06-29 11:05:06 51°20.542 3°1.6 22.073272 0.02378 0.123606 6.668529
2004-06-29 11:06:06 51°20.461 3°1.293 22.102465 0.023676 0.123064 6.668529
2004-06-29 11:07:06 51°20.38 3°0.987 22.091544 0.02378 0.123582 6.668529
2004-06-29 11:08:06 51°20.299 3°0.68 22.089619 0.023676 0.12304 6.702238
2004-06-29 11:09:06 51°20.219 3°0.37 22.097555 0.02378 0.12356 6.702238
2004-06-29 11:10:06 51°20.14 3°0.057 22.121751 0.02378 0.123548 6.668529
2004-06-29 11:11:06 51°20.061 2°59.741 22.120808 0.02378 0.123536 6.668529
2004-06-29 11:12:06 51°19.982 2°59.425 22.137536 0.02378 0.123524 6.668529
2004-06-29 11:13:07 51°19.903 2°59.105 22.120023 0.02378 0.123512 6.702238
2004-06-29 11:14:06 51°19.825 2°58.795 22.13361 0.02378 0.1235 6.702238
2004-06-29 11:15:06 51°19.746 2°58.48 22.122732 0.02378 0.12349 6.668529
2004-06-29 11:16:06 51°19.667 2°58.166 22.15269 0.02378 0.123476 6.668529
2004-06-29 11:17:06 51°19.589 2°57.852 22.14107 0.02378 0.123466 6.668529
2004-06-29 11:18:06 51°19.511 2°57.537 22.15324 0.02378 0.123452 6.668529
2004-06-29 11:19:06 51°19.432 2°57.222 22.144839 0.02378 0.12344 6.668529
2004-06-29 11:20:06 51°19.352 2°56.909 22.182165 0.02378 0.123442 6.634819
2004-06-29 11:21:06 51°19.273 2°56.596 22.156773 0.02378 0.123449 6.668529
2004-06-29 11:22:06 51°19.193 2°56.281 22.180085 0.02378 0.123463 6.668529
2004-06-29 11:23:06 51°19.114 2°55.967 22.186834 0.02378 0.12348 6.668529
2004-06-29 11:24:06 51°19.035 2°55.652 22.188404 0.02378 0.123504 6.668529
2004-06-29 11:25:06 51°18.955 2°55.338 22.201899 0.02378 0.123531 6.668529
2004-06-29 11:26:06 51°18.875 2°55.023 22.203547 0.02378 0.123558 6.668529
2004-06-29 11:27:06 51°18.795 2°54.71 22.213824 0.02378 0.123589 6.668529
2004-06-29 11:28:06 51°18.714 2°54.396 22.23504 0.02378 0.123617 6.668529
2004-06-29 11:29:06 51°18.633 2°54.082 22.226609 0.02378 0.123642 6.702238
2004-06-29 11:30:06 51°18.553 2°53.768 22.217667 0.02378 0.123668 6.702238
2004-06-29 11:31:05 51°18.475 2°53.46 22.256915 0.02378 0.123694 6.668529
2004-06-29 11:32:06 51°18.394 2°53.139 22.227197 0.02378 0.123716 6.702238
2004-06-29 11:33:06 51°18.312 2°52.827 22.25425 0.02378 0.12374 6.702238
2004-06-29 11:34:05 51°18.18 2°52.583 22.247899 0.023676 0.123231 6.668529
2004-06-29 11:35:06 51°17.983 2°52.461 22.265538 0.023676 0.123264 6.668529
2004-06-29 11:36:06 51°17.779 2°52.397 22.248409 0.023676 0.123305 6.668529
2004-06-29 11:37:06 51°17.566 2°52.407 22.269222 0.023676 0.123346 6.668529
2004-06-29 11:38:06 51°17.353 2°52.44 22.296024 0.023676 0.123385 6.702238
2004-06-29 11:39:07 51°17.139 2°52.507 22.313103 0.023676 0.12338 6.702238
2004-06-29 11:40:06 51°16.94 2°52.632 22.261619 0.023676 0.123433 6.702238
2004-06-29 11:41:05 51°16.741 2°52.763 22.257229 0.023676 0.123456 6.668529
2004-06-29 11:42:06 51°16.533 2°52.901 22.317725 0.023676 0.123471 6.668529
2004-06-29 11:43:06 51°16.334 2°53.061 22.298336 0.023676 0.123478 6.668529
2004-06-29 11:44:06 51°16.137 2°53.223 22.289403 0.023676 0.123501 6.668529
2004-06-29 11:45:06 51°15.938 2°53.377 22.303467 0.023676 0.123482 6.634819
2004-06-29 11:46:06 51°15.738 2°53.53 22.279451 0.023676 0.123513 6.702238
2004-06-29 11:47:06 51°15.536 2°53.682 22.29908 0.023676 0.123525 6.668529
2004-06-29 11:48:06 51°15.334 2°53.837 22.335112 0.023676 0.123542 6.668529
2004-06-29 11:49:06 51°15.177 2°53.955 22.337422 0.023676 0.123549 6.634819
2004-06-29 11:50:06 51°15 2°54.131 22.334877 0.023676 0.123556 6.702238
2004-06-29 11:51:07 51°14.826 2°54.348 22.362241 0.023676 0.123563 6.702238
2004-06-29 11:52:06 51°14.667 2°54.576 22.37046 0.023676 0.123566 6.668529
2004-06-29 11:53:06 51°14.513 2°54.801 22.333937 0.023572 0.123033 6.668529
2004-06-29 11:54:06 51°14.396 2°54.991 22.359658 0.023572 0.123035 6.702238